createdAt,value
2018-10-11T00:01:34.138Z,100731.97
2018-10-11T00:04:04.674Z,100734.08
2018-10-11T00:06:37.778Z,100730.41
2018-10-11T00:09:10.653Z,100726.81
2018-10-11T00:11:40.845Z,100730.10
2018-10-11T00:14:18.850Z,100737.90
2018-10-11T00:16:54.137Z,100732.67
2018-10-11T00:19:30.940Z,100730.55
2018-10-11T00:22:01.240Z,100725.83
2018-10-11T00:24:31.428Z,100730.67
2018-10-11T00:27:01.792Z,100729.33
2018-10-11T00:29:31.981Z,100737.80
2018-10-11T00:32:02.196Z,100737.19
2018-10-11T00:34:32.360Z,100738.05
2018-10-11T00:37:02.449Z,100732.90
2018-10-11T00:39:32.626Z,100734.07
2018-10-11T00:42:02.739Z,100728.00
2018-10-11T00:44:32.906Z,100731.64
2018-10-11T00:47:03.031Z,100734.61
2018-10-11T00:49:33.335Z,100730.61
2018-10-11T00:52:03.430Z,100734.80
2018-10-11T00:54:33.521Z,100732.03
2018-10-11T00:57:03.632Z,100727.81
2018-10-11T00:59:33.844Z,100722.12
2018-10-11T01:02:03.965Z,100716.31
2018-10-11T01:04:34.210Z,100713.27
2018-10-11T01:07:04.416Z,100711.80
2018-10-11T01:09:34.638Z,100714.19
2018-10-11T01:12:04.791Z,100713.62
2018-10-11T01:14:34.994Z,100709.50
2018-10-11T01:17:05.156Z,100708.13
2018-10-11T01:19:35.369Z,100716.95
2018-10-11T01:22:05.493Z,100706.19
2018-10-11T01:24:35.822Z,100706.28
2018-10-11T01:27:05.943Z,100706.17
2018-10-11T01:29:36.138Z,100705.06
2018-10-11T01:32:06.231Z,100697.05
2018-10-11T01:34:36.383Z,100699.05
2018-10-11T01:37:06.581Z,100697.58
2018-10-11T01:39:36.802Z,100690.40
2018-10-11T01:42:07.018Z,100687.76
2018-10-11T01:44:37.311Z,100680.27
2018-10-11T01:47:07.611Z,100680.03
2018-10-11T01:49:37.845Z,100682.67
2018-10-11T01:52:08.237Z,100675.82
2018-10-11T01:54:38.431Z,100687.59
2018-10-11T01:57:10.074Z,100688.27
2018-10-11T01:59:40.247Z,100686.69
2018-10-11T02:02:10.430Z,100692.21
2018-10-11T02:04:40.633Z,100684.62
2018-10-11T02:07:10.725Z,100683.97
2018-10-11T02:09:40.879Z,100681.98
2018-10-11T02:12:11.026Z,100675.91
2018-10-11T02:14:41.224Z,100674.06
2018-10-11T02:17:11.348Z,100667.05
2018-10-11T02:19:41.581Z,100667.47
2018-10-11T02:22:11.765Z,100666.73
2018-10-11T02:24:42.015Z,100661.41
2018-10-11T02:27:12.154Z,100659.54
2018-10-11T02:29:42.317Z,100658.81
2018-10-11T02:32:12.485Z,100661.80
2018-10-11T02:34:42.668Z,100658.44
2018-10-11T02:37:14.419Z,100657.23
2018-10-11T02:39:44.585Z,100653.48
2018-10-11T02:42:14.725Z,100647.15
2018-10-11T02:44:44.995Z,100648.20
2018-10-11T02:47:15.118Z,100648.94
2018-10-11T02:49:45.346Z,100652.58
2018-10-11T02:52:15.523Z,100652.95
2018-10-11T02:54:45.789Z,100650.08
2018-10-11T02:57:32.599Z,100639.85
2018-10-11T03:00:04.602Z,100639.15
2018-10-11T03:02:36.221Z,100648.91
2018-10-11T03:05:12.624Z,100645.75
2018-10-11T03:07:42.915Z,100654.39
2018-10-11T03:10:13.217Z,100661.39
2018-10-11T03:12:43.384Z,100667.25
2018-10-11T03:15:13.636Z,100658.31
2018-10-11T03:17:43.801Z,100663.78
2018-10-11T03:20:13.931Z,100648.44
2018-10-11T03:22:44.065Z,100641.64
2018-10-11T03:25:14.254Z,100636.53
2018-10-11T03:27:44.386Z,100643.08
2018-10-11T03:30:14.593Z,100646.02
2018-10-11T03:32:49.482Z,100645.80
2018-10-11T03:35:19.845Z,100642.20
2018-10-11T03:37:50.017Z,100645.59
2018-10-11T03:40:20.144Z,100645.00
2018-10-11T03:42:50.461Z,100648.16
2018-10-11T03:45:20.652Z,100647.12
2018-10-11T03:47:50.857Z,100645.10
2018-10-11T03:50:21.041Z,100635.48
2018-10-11T03:52:51.476Z,100633.63
2018-10-11T03:55:21.612Z,100635.95
2018-10-11T03:57:51.908Z,100631.88
2018-10-11T04:00:22.179Z,100635.72
2018-10-11T04:02:52.595Z,100639.70
2018-10-11T04:05:22.776Z,100649.61
2018-10-11T04:07:53.154Z,100652.73
2018-10-11T04:10:23.330Z,100660.84
2018-10-11T04:12:53.549Z,100660.19
2018-10-11T04:15:23.705Z,100663.92
2018-10-11T04:17:54.607Z,100665.56
2018-10-11T04:20:24.770Z,100663.81
2018-10-11T04:22:55.076Z,100653.94
2018-10-11T04:25:25.790Z,100655.69
2018-10-11T04:27:56.020Z,100657.53
2018-10-11T04:30:26.575Z,100666.05
2018-10-11T04:32:57.552Z,100664.45
2018-10-11T04:35:27.755Z,100653.98
2018-10-11T04:37:57.946Z,100657.86
2018-10-11T04:40:28.088Z,100649.21
2018-10-11T04:42:58.285Z,100653.78
2018-10-11T04:45:28.460Z,100659.11
2018-10-11T04:47:58.620Z,100657.80
2018-10-11T04:50:28.719Z,100659.39
2018-10-11T04:52:58.917Z,100655.17
2018-10-11T04:55:29.004Z,100663.22
2018-10-11T04:57:59.403Z,100655.63
2018-10-11T05:00:29.572Z,100662.28
2018-10-11T05:02:59.763Z,100652.08
2018-10-11T05:05:30.065Z,100649.00
2018-10-11T05:08:00.423Z,100657.82
2018-10-11T05:10:30.642Z,100654.59
2018-10-11T05:13:01.393Z,100654.14
2018-10-11T05:15:32.046Z,100648.67
2018-10-11T05:18:02.448Z,100651.59
2018-10-11T05:20:32.690Z,100660.75
2018-10-11T05:23:02.889Z,100664.14
2018-10-11T05:25:33.802Z,100666.23
2018-10-11T05:28:04.110Z,100662.38
2018-10-11T05:30:35.129Z,100664.64
2018-10-11T05:33:05.399Z,100662.14
2018-10-11T05:35:35.509Z,100662.80
2018-10-11T05:38:05.664Z,100664.45
2018-10-11T05:40:35.850Z,100656.44
2018-10-11T05:43:07.000Z,100665.25
2018-10-11T05:45:38.388Z,100674.75
2018-10-11T05:48:08.745Z,100679.61
2018-10-11T05:50:39.201Z,100679.27
2018-10-11T05:53:09.511Z,100679.09
2018-10-11T05:55:39.898Z,100691.88
2018-10-11T05:58:10.228Z,100685.87
2018-10-11T06:00:40.444Z,100683.37
2018-10-11T06:03:10.795Z,100683.12
2018-10-11T06:05:41.014Z,100683.51
2018-10-11T06:08:11.304Z,100681.66
2018-10-11T06:10:43.628Z,100684.16
2018-10-11T06:13:14.596Z,100686.80
2018-10-11T06:15:44.920Z,100688.91
2018-10-11T06:18:15.115Z,100699.13
2018-10-11T06:20:45.734Z,100703.66
2018-10-11T06:23:16.757Z,100720.69
2018-10-11T06:25:46.986Z,100724.55
2018-10-11T06:28:17.331Z,100725.44
2018-10-11T06:30:47.916Z,100727.28
2018-10-11T06:33:18.574Z,100727.41
2018-10-11T06:35:49.001Z,100731.09
2018-10-11T06:38:19.415Z,100727.79
2018-10-11T06:40:49.777Z,100732.20
2018-10-11T06:43:20.161Z,100734.95
2018-10-11T06:45:50.471Z,100732.09
2018-10-11T06:48:21.067Z,100729.17
2018-10-11T06:50:51.348Z,100720.37
2018-10-11T06:53:21.628Z,100726.74
2018-10-11T06:55:51.835Z,100728.81
2018-10-11T06:58:21.993Z,100735.95
2018-10-11T07:00:52.132Z,100741.77
2018-10-11T07:03:22.401Z,100731.64
2018-10-11T07:05:52.543Z,100727.41
2018-10-11T07:08:23.281Z,100730.66
2018-10-11T07:10:53.401Z,100729.78
2018-10-11T07:13:23.637Z,100730.60
2018-10-11T07:15:53.761Z,100735.92
2018-10-11T07:18:24.023Z,100733.08
2018-10-11T07:20:54.277Z,100735.12
2018-10-11T07:23:24.523Z,100738.66
2018-10-11T07:25:54.822Z,100739.60
2018-10-11T07:28:25.153Z,100747.00
2018-10-11T07:30:55.296Z,100748.91
2018-10-11T07:33:25.702Z,100746.98
2018-10-11T07:35:55.805Z,100752.12
2018-10-11T07:38:25.863Z,100754.88
2018-10-11T07:40:56.083Z,100752.81
2018-10-11T07:43:26.213Z,100752.60
2018-10-11T07:45:56.485Z,100751.39
2018-10-11T07:48:26.665Z,100759.21
2018-10-11T07:50:56.782Z,100769.81
2018-10-11T07:53:27.091Z,100763.61
2018-10-11T07:55:57.414Z,100770.73
2018-10-11T07:58:27.578Z,100769.48
2018-10-11T08:00:59.857Z,100767.20
2018-10-11T08:03:30.112Z,100767.25
2018-10-11T08:06:00.496Z,100762.22
2018-10-11T08:08:30.759Z,100765.38
2018-10-11T08:11:01.021Z,100769.41
2018-10-11T08:13:31.149Z,100764.20
2018-10-11T08:16:01.208Z,100762.60
2018-10-11T08:18:32.293Z,100766.89
2018-10-11T08:21:02.991Z,100773.14
2018-10-11T08:23:33.147Z,100772.59
2018-10-11T08:26:03.665Z,100766.42
2018-10-11T08:28:33.656Z,100771.56
2018-10-11T08:31:03.805Z,100764.03
2018-10-11T08:33:33.996Z,100777.19
2018-10-11T08:36:04.124Z,100766.16
2018-10-11T08:38:34.508Z,100770.00
2018-10-11T08:41:04.542Z,100771.85
2018-10-11T08:43:34.782Z,100774.73
2018-10-11T08:46:04.839Z,100776.02
2018-10-11T08:48:35.049Z,100773.46
2018-10-11T08:51:05.214Z,100772.97
2018-10-11T08:53:35.547Z,100784.77
2018-10-11T08:56:05.852Z,100780.86
2018-10-11T08:58:36.066Z,100786.81
2018-10-11T09:01:06.307Z,100788.84
2018-10-11T09:03:36.502Z,100782.91
2018-10-11T09:06:06.609Z,100787.62
2018-10-11T09:08:36.781Z,100790.45
2018-10-11T09:11:07.070Z,100782.34
2018-10-11T09:13:37.123Z,100778.39
2018-10-11T09:16:07.279Z,100776.98
2018-10-11T09:18:37.554Z,100771.87
2018-10-11T09:21:08.297Z,100776.45
2018-10-11T09:23:38.476Z,100778.02
2018-10-11T09:26:08.697Z,100767.05
2018-10-11T09:28:40.623Z,100762.52
2018-10-11T09:31:15.838Z,100766.75
2018-10-11T09:33:46.287Z,100761.98
2018-10-11T09:36:16.652Z,100764.38
2018-10-11T09:38:46.884Z,100766.56
2018-10-11T09:41:17.891Z,100760.91
2018-10-11T09:43:48.036Z,100756.80
2018-10-11T09:46:18.182Z,100763.31
2018-10-11T09:48:48.408Z,100759.27
2018-10-11T09:51:18.989Z,100759.95
2018-10-11T09:53:49.175Z,100761.44
2018-10-11T09:56:19.326Z,100759.17
2018-10-11T09:58:49.817Z,100759.73
2018-10-11T10:01:25.072Z,100758.52
2018-10-11T10:03:55.245Z,100760.86
2018-10-11T10:06:25.504Z,100757.73
2018-10-11T10:08:55.706Z,100764.19
2018-10-11T10:11:26.129Z,100751.09
2018-10-11T10:13:58.851Z,100751.56
2018-10-11T10:19:07.914Z,100749.84
2018-10-11T10:21:38.386Z,100753.38
2018-10-11T10:24:08.588Z,100754.45
2018-10-11T10:26:38.874Z,100753.15
2018-10-11T10:29:09.207Z,100752.41
2018-10-11T10:31:39.518Z,100749.05
2018-10-11T10:34:11.750Z,100754.08
2018-10-11T10:36:41.895Z,100747.98
2018-10-11T10:39:12.262Z,100746.39
2018-10-11T10:41:42.580Z,100744.98
2018-10-11T10:44:12.902Z,100736.61
2018-10-11T10:46:43.174Z,100737.49
2018-10-11T10:49:13.543Z,100739.91
2018-10-11T10:51:43.821Z,100732.55
2018-10-11T10:54:19.849Z,100735.83
2018-10-11T10:56:50.198Z,100732.99
2018-10-11T10:59:20.630Z,100724.97
2018-10-11T11:01:50.808Z,100721.61
2018-10-11T11:04:21.861Z,100719.20
2018-10-11T11:06:54.984Z,100716.64
2018-10-11T11:09:25.274Z,100716.33
2018-10-11T11:11:55.496Z,100707.56
2018-10-11T11:14:25.834Z,100705.41
2018-10-11T11:16:56.595Z,100703.95
2018-10-11T11:19:26.793Z,100700.00
2018-10-11T11:21:56.943Z,100695.63
2018-10-11T11:24:27.810Z,100696.02
2018-10-11T11:26:58.037Z,100687.20
2018-10-11T11:29:28.474Z,100688.32
2018-10-11T11:31:58.579Z,100687.98
2018-10-11T11:34:29.037Z,100686.39
2018-10-11T11:36:59.348Z,100685.05
2018-10-11T11:39:30.092Z,100682.92
2018-10-11T11:42:00.277Z,100684.59
2018-10-11T11:44:30.484Z,100678.75
2018-10-11T11:47:00.636Z,100686.27
2018-10-11T11:49:30.887Z,100689.06
2018-10-11T11:52:00.994Z,100687.58
2018-10-11T11:54:31.234Z,100686.45
2018-10-11T11:57:01.454Z,100681.88
2018-10-11T11:59:31.667Z,100684.23
2018-10-11T12:02:01.987Z,100688.61
2018-10-11T12:04:32.230Z,100684.04
2018-10-11T12:07:02.414Z,100675.70
2018-10-11T12:09:32.665Z,100677.70
2018-10-11T12:12:02.848Z,100679.30
2018-10-11T12:14:33.031Z,100686.17
2018-10-11T12:17:03.423Z,100681.91
2018-10-11T12:19:33.574Z,100676.30
2018-10-11T12:22:03.804Z,100675.66
2018-10-11T12:24:34.448Z,100674.39
2018-10-11T12:27:04.630Z,100671.96
2018-10-11T12:29:34.939Z,100669.33
2018-10-11T12:32:05.439Z,100669.48
2018-10-11T12:34:35.856Z,100667.37
2018-10-11T12:37:06.147Z,100668.39
2018-10-11T12:39:36.409Z,100664.23
2018-10-11T12:42:06.588Z,100665.36
2018-10-11T12:44:36.742Z,100660.47
2018-10-11T12:47:07.177Z,100669.80
2018-10-11T12:49:41.642Z,100666.73
2018-10-11T12:52:07.894Z,100664.02
2018-10-11T12:54:38.034Z,100664.70
2018-10-11T12:57:11.953Z,100664.09
2018-10-11T12:59:38.393Z,100669.72
2018-10-11T13:02:08.672Z,100665.00
2018-10-11T13:04:38.949Z,100666.02
2018-10-11T13:07:10.001Z,100668.37
2018-10-11T13:09:40.552Z,100667.65
2018-10-11T13:12:10.740Z,100673.05
2018-10-11T13:14:40.990Z,100680.63
2018-10-11T13:17:11.352Z,100671.69
2018-10-11T13:19:41.521Z,100664.89
2018-10-11T13:22:11.819Z,100666.31
2018-10-11T13:24:46.835Z,100677.22
2018-10-11T13:27:12.356Z,100678.38
2018-10-11T13:29:42.510Z,100670.47
2018-10-11T13:32:12.754Z,100670.61
2018-10-11T13:34:42.931Z,100671.30
2018-10-11T13:37:13.009Z,100677.58
2018-10-11T13:39:48.575Z,100681.63
2018-10-11T13:42:13.698Z,100679.25
2018-10-11T13:44:44.564Z,100670.97
2018-10-11T13:47:14.801Z,100675.78
2018-10-11T13:49:44.904Z,100679.54
2018-10-11T13:52:18.230Z,100683.78
2018-10-11T13:54:45.277Z,100681.28
2018-10-11T13:57:15.710Z,100679.03
2018-10-11T13:59:45.828Z,100678.44
2018-10-11T14:02:15.959Z,100676.63
2018-10-11T14:04:46.423Z,100677.70
2018-10-11T14:07:16.747Z,100669.08
2018-10-11T14:09:46.937Z,100663.03
2018-10-11T14:12:17.141Z,100664.38
2018-10-11T14:14:47.318Z,100664.59
2018-10-11T14:17:17.645Z,100669.52
2018-10-11T14:19:47.823Z,100671.03
2018-10-11T14:22:18.097Z,100663.94
2018-10-11T14:24:48.422Z,100665.47
2018-10-11T14:27:18.654Z,100660.48
2018-10-11T14:29:48.851Z,100666.41
2018-10-11T14:32:18.953Z,100669.21
2018-10-11T14:34:49.118Z,100673.38
2018-10-11T14:37:19.340Z,100676.72
2018-10-11T14:39:49.519Z,100674.83
2018-10-11T14:42:19.733Z,100672.88
2018-10-11T14:44:49.893Z,100667.53
2018-10-11T14:47:20.058Z,100671.06
2018-10-11T14:49:50.237Z,100671.80
2018-10-11T14:52:20.378Z,100663.89
2018-10-11T14:54:50.537Z,100664.54
2018-10-11T14:57:20.709Z,100660.47
2018-10-11T14:59:50.955Z,100660.72
2018-10-11T15:02:21.139Z,100654.91
2018-10-11T15:04:51.447Z,100650.53
2018-10-11T15:07:21.524Z,100655.00
2018-10-11T15:09:51.693Z,100654.80
2018-10-11T15:12:21.882Z,100652.06
2018-10-11T15:14:54.128Z,100646.27
2018-10-11T15:17:24.285Z,100647.18
2018-10-11T15:19:54.492Z,100648.23
2018-10-11T15:22:24.610Z,100644.06
2018-10-11T15:24:54.886Z,100643.38
2018-10-11T15:27:25.126Z,100637.10
2018-10-11T15:29:55.541Z,100640.22
2018-10-11T15:32:25.591Z,100636.50
2018-10-11T15:34:55.795Z,100640.58
2018-10-11T15:37:25.962Z,100636.83
2018-10-11T15:39:56.176Z,100640.03
2018-10-11T15:42:26.365Z,100644.63
2018-10-11T15:44:56.484Z,100647.73
2018-10-11T15:47:26.686Z,100642.40
2018-10-11T15:49:56.928Z,100650.20
2018-10-11T15:52:27.103Z,100651.23
2018-10-11T15:54:57.314Z,100653.52
2018-10-11T15:57:27.441Z,100641.56
2018-10-11T15:59:57.569Z,100643.27
2018-10-11T16:02:27.697Z,100643.14
2018-10-11T16:04:57.968Z,100643.07
2018-10-11T16:07:28.082Z,100644.30
2018-10-11T16:09:58.624Z,100642.23
2018-10-11T16:12:28.837Z,100645.28
2018-10-11T16:14:59.038Z,100646.53
2018-10-11T16:17:29.229Z,100643.64
2018-10-11T16:19:59.518Z,100646.55
2018-10-11T16:22:29.713Z,100648.36
2018-10-11T16:24:59.861Z,100643.48
2018-10-11T16:27:29.996Z,100648.38
2018-10-11T16:30:00.141Z,100651.70
2018-10-11T16:32:30.368Z,100644.34
2018-10-11T16:35:00.587Z,100650.77
2018-10-11T16:37:30.762Z,100651.91
2018-10-11T16:40:01.119Z,100656.35
2018-10-11T16:42:31.421Z,100654.50
2018-10-11T16:45:01.668Z,100656.27
2018-10-11T16:47:31.860Z,100661.70
2018-10-11T16:50:02.121Z,100668.70
2018-10-11T16:52:32.213Z,100666.59
2018-10-11T16:55:02.352Z,100669.72
2018-10-11T16:57:32.429Z,100670.05
2018-10-11T17:00:03.061Z,100678.34
2018-10-11T17:02:33.350Z,100679.94
2018-10-11T17:05:03.577Z,100685.86
2018-10-11T17:07:33.725Z,100685.14
2018-10-11T17:10:03.933Z,100687.13
2018-10-11T17:12:34.111Z,100693.20
2018-10-11T17:15:04.408Z,100691.92
2018-10-11T17:17:34.600Z,100692.21
2018-10-11T17:20:04.803Z,100698.36
2018-10-11T17:22:35.248Z,100697.64
2018-10-11T17:25:05.592Z,100707.12
2018-10-11T17:27:35.906Z,100707.71
2018-10-11T17:30:06.337Z,100715.04
2018-10-11T17:32:36.575Z,100721.42
2018-10-11T17:35:07.502Z,100719.69
2018-10-11T17:37:37.658Z,100729.20
2018-10-11T17:40:07.934Z,100720.98
2018-10-11T17:42:38.080Z,100731.70
2018-10-11T17:45:09.211Z,100734.77
2018-10-11T17:47:39.330Z,100738.52
2018-10-11T17:50:09.525Z,100735.98
2018-10-11T17:52:39.604Z,100739.58
2018-10-11T17:55:09.996Z,100737.02
2018-10-11T17:57:40.253Z,100740.98
2018-10-11T18:00:11.339Z,100744.58
2018-10-11T18:02:41.475Z,100750.55
2018-10-11T18:05:11.737Z,100754.13
2018-10-11T18:07:41.854Z,100758.35
2018-10-11T18:10:12.934Z,100765.45
2018-10-11T18:12:43.842Z,100776.72
2018-10-11T18:15:13.973Z,100776.13
2018-10-11T18:17:44.082Z,100779.87
2018-10-11T18:20:14.341Z,100774.44
2018-10-11T18:22:44.498Z,100780.29
2018-10-11T18:25:14.738Z,100770.81
2018-10-11T18:27:44.945Z,100771.44
2018-10-11T18:30:15.304Z,100777.13
2018-10-11T18:32:45.460Z,100774.55
2018-10-11T18:35:15.608Z,100773.05
2018-10-11T18:37:45.789Z,100783.34
2018-10-11T18:40:15.980Z,100779.95
2018-10-11T18:42:46.104Z,100774.84
2018-10-11T18:45:16.322Z,100782.00
2018-10-11T18:47:46.477Z,100785.29
2018-10-11T18:50:16.603Z,100778.92
2018-10-11T18:52:46.870Z,100782.77
2018-10-11T18:55:16.977Z,100781.42
2018-10-11T18:57:47.116Z,100792.45
2018-10-11T19:00:21.758Z,100786.63
2018-10-11T19:02:53.371Z,100788.77
2018-10-11T19:05:23.869Z,100789.33
2018-10-11T19:07:54.113Z,100798.38
2018-10-11T19:10:24.391Z,100799.22
2018-10-11T19:12:54.528Z,100802.63
2018-10-11T19:15:25.933Z,100804.73
2018-10-11T19:17:56.080Z,100796.56
2018-10-11T19:20:26.274Z,100797.22
2018-10-11T19:22:56.554Z,100795.19
2018-10-11T19:25:26.714Z,100797.70
2018-10-11T19:27:57.013Z,100796.69
2018-10-11T19:30:27.407Z,100800.61
2018-10-11T19:32:59.228Z,100804.16
2018-10-11T19:35:29.364Z,100798.80
2018-10-11T19:38:00.091Z,100797.59
2018-10-11T19:40:30.274Z,100791.34
2018-10-11T19:43:00.629Z,100802.66
2018-10-11T19:45:30.927Z,100803.14
2018-10-11T19:48:01.263Z,100804.39
2018-10-11T19:50:31.416Z,100797.19
2018-10-11T19:53:01.711Z,100795.53
2018-10-11T19:55:31.915Z,100796.87
2018-10-11T19:58:02.217Z,100793.00
2018-10-11T20:00:32.471Z,100796.69
2018-10-11T20:03:03.820Z,100797.48
2018-10-11T20:05:33.970Z,100799.08
2018-10-11T20:08:04.343Z,100804.92
2018-10-11T20:10:34.482Z,100813.23
2018-10-11T20:13:04.753Z,100807.98
2018-10-11T20:15:34.925Z,100810.78
2018-10-11T20:18:05.177Z,100816.33
2018-10-11T20:20:35.501Z,100817.23
2018-10-11T20:23:05.724Z,100818.27
2018-10-11T20:25:35.890Z,100823.02
2018-10-11T20:28:06.211Z,100820.27
2018-10-11T20:30:36.393Z,100818.95
2018-10-11T20:33:09.059Z,100807.11
2018-10-11T20:35:39.381Z,100809.73
2018-10-11T20:38:09.572Z,100808.81
2018-10-11T20:40:39.946Z,100804.98
2018-10-11T20:43:10.072Z,100807.22
2018-10-11T20:45:40.299Z,100808.70
2018-10-11T20:48:10.686Z,100812.14
2018-10-11T20:50:40.813Z,100814.55
2018-10-11T20:53:11.113Z,100814.86
2018-10-11T20:55:43.992Z,100815.89
2018-10-11T20:58:14.142Z,100815.30
2018-10-11T21:00:44.373Z,100818.62
2018-10-11T21:03:14.837Z,100812.11
2018-10-11T21:05:45.069Z,100808.03
2018-10-11T21:08:15.194Z,100808.20
2018-10-11T21:10:45.431Z,100809.00
2018-10-11T21:13:15.563Z,100808.20
2018-10-11T21:15:45.697Z,100809.22
2018-10-11T21:18:15.914Z,100812.82
2018-10-11T21:20:55.553Z,100813.31
2018-10-11T21:23:25.948Z,100812.30
2018-10-11T21:25:56.523Z,100821.02
2018-10-11T21:28:26.669Z,100818.82
2018-10-11T21:30:56.891Z,100822.56
2018-10-11T21:33:27.005Z,100823.92
2018-10-11T21:35:57.478Z,100829.94
2018-10-11T21:38:27.814Z,100837.08
2018-10-11T21:40:58.576Z,100836.14
2018-10-11T21:43:28.816Z,100831.95
2018-10-11T21:45:58.991Z,100828.53
2018-10-11T21:48:29.178Z,100822.81
2018-10-11T21:50:59.338Z,100820.55
2018-10-11T21:53:29.641Z,100825.67
2018-10-11T21:55:59.910Z,100821.13
2018-10-11T21:58:30.059Z,100814.88
2018-10-11T22:01:05.316Z,100806.63
2018-10-11T22:03:35.454Z,100812.50
2018-10-11T22:06:05.628Z,100802.72
2018-10-11T22:08:36.061Z,100796.36
2018-10-11T22:11:06.211Z,100796.92
2018-10-11T22:13:36.419Z,100796.97
2018-10-11T22:16:06.891Z,100793.15
2018-10-11T22:18:37.039Z,100796.91
2018-10-11T22:21:07.612Z,100793.43
2018-10-11T22:23:38.085Z,100799.63
2018-10-11T22:26:08.657Z,100795.72
2018-10-11T22:28:39.379Z,100798.05
2018-10-11T22:31:12.048Z,100795.97
2018-10-11T22:33:43.107Z,100798.23
2018-10-11T22:36:13.822Z,100799.45
2018-10-11T22:38:45.321Z,100806.91
2018-10-11T22:41:15.698Z,100817.92
2018-10-11T22:43:45.910Z,100826.22
2018-10-11T22:46:16.181Z,100822.44
2018-10-11T22:48:46.316Z,100828.70
2018-10-11T22:51:16.602Z,100833.84
2018-10-11T22:53:46.800Z,100839.55
2018-10-11T22:56:20.973Z,100841.77
2018-10-11T22:58:52.803Z,100845.92
2018-10-11T23:01:23.120Z,100855.69
2018-10-11T23:03:53.231Z,100855.95
2018-10-11T23:06:23.455Z,100863.73
2018-10-11T23:08:53.566Z,100871.06
2018-10-11T23:11:24.455Z,100868.78
2018-10-11T23:13:54.572Z,100875.18
2018-10-11T23:16:24.742Z,100885.30
2018-10-11T23:18:54.902Z,100881.61
2018-10-11T23:21:25.130Z,100882.54
2018-10-11T23:23:55.305Z,100883.59
2018-10-11T23:26:25.525Z,100888.33
2018-10-11T23:28:55.655Z,100894.41
2018-10-11T23:31:25.845Z,100898.67
2018-10-11T23:33:55.986Z,100905.30
2018-10-11T23:36:26.109Z,100907.40
2018-10-11T23:38:56.287Z,100905.09
2018-10-11T23:41:26.431Z,100908.73
2018-10-11T23:43:56.625Z,100907.91
2018-10-11T23:46:26.806Z,100909.50
2018-10-11T23:48:56.961Z,100907.13
2018-10-11T23:51:27.119Z,100915.50
2018-10-11T23:53:57.314Z,100921.01
2018-10-11T23:56:27.529Z,100917.95
2018-10-11T23:58:57.672Z,100916.83
